Terminal Aerodrome Forecast
Issued by NWS

Home | Current Version | Previous Version | Text Only | Print | Product List | Glossary On
Versions: 1 2 3 4 5 6 7 8 9 10 11 12 13 14 15 16 17 18 19
000
FTAK31 PAJN 240200 AAA
TAFAYA
TAF AMD
PAYA 240214Z 2402/2424 11006KT 6SM -RA BR SCT008 BKN012 OVC016
      TEMPO 2402/2406 10008G16KT 1SM -RA BR BKN006 OVC012
     FM240900 00000KT P6SM -RA BKN015 OVC025
     FM241200 00000KT P6SM -RA SCT012 OVC025
     FM241500 VRB03KT P6SM -RA SCT025 OVC050
     FM242100 14006KT P6SM -RA BKN050
      AMD LTD TO CLD VIS AND WIND 2401/2410=

USA.gov is the U.S. government's official web portal to all federal, state and local government web resources and services.